Time;durP1;ratioP1;P1;durP2;ratioP2;P2;SDS_P1;SDS_P2;PMS_P1;PMS_P2;Temp;Humidity;BMP_temperature;BMP_pressure;BME280_temperature;BME280_humidity;BME280_pressure;Samples;Min_cycle;Max_cycle;Signal;HPM_P1;HPM_P2
2021/03/12 09:29:34;;;;;;;16.10;6.10;;;7.80;65.20;;;;;;5091479;27;20297;-36
2021/03/12 09:32:00;;;;;;;12.07;4.20;;;8.00;65.20;;;;;;5090425;28;20033;-36
2021/03/12 09:34:26;;;;;;;17.73;3.42;;;7.90;65.10;;;;;;5071870;28;20405;-36
2021/03/12 09:36:52;;;;;;;21.80;6.40;;;8.00;64.80;;;;;;5089828;28;20043;-37
2021/03/12 09:39:27;;;;;;;9.13;3.38;;;8.50;62.80;;;;;;5090165;28;20438;-39
2021/03/12 09:41:55;;;;;;;21.45;5.03;;;8.30;62.90;;;;;;5090204;28;20025;-38
2021/03/12 09:44:21;;;;;;;12.02;3.35;;;8.40;62.60;;;;;;5090204;28;20029;-37
2021/03/12 09:46:59;;;;;;;21.17;3.80;;;8.30;63.20;;;;;;5089991;28;20490;-37
2021/03/12 09:49:35;;;;;;;8.98;3.25;;;8.50;63.30;;;;;;5090152;28;20020;-37
2021/03/12 09:52:09;;;;;;;17.02;3.63;;;8.40;62.70;;;;;;5105275;28;20468;-37
2021/03/12 09:54:36;;;;;;;27.08;3.97;;;8.40;63.40;;;;;;5089987;28;20020;-38
2021/03/12 09:57:01;;;;;;;17.98;3.70;;;8.30;63.30;;;;;;5089763;28;20103;-38
2021/03/12 09:59:32;;;;;;;14.40;4.05;;;8.20;63.80;;;;;;5090201;28;20380;-37
2021/03/12 10:02:02;;;;;;;13.85;3.70;;;8.50;63.20;;;;;;5089479;28;20024;-37
2021/03/12 10:04:32;;;;;;;14.95;3.92;;;8.60;63.20;;;;;;5071498;28;20074;-37
2021/03/12 10:07:11;;;;;;;17.77;3.30;;;8.80;62.30;;;;;;5090939;28;20452;-38
2021/03/12 10:09:41;;;;;;;24.27;4.13;;;8.70;62.20;;;;;;5089999;28;20077;-37
2021/03/12 10:12:21;;;;;;;21.48;4.78;;;8.90;61.80;;;;;;5071519;28;20027;-37
2021/03/12 10:14:54;;;;;;;20.10;5.13;;;9.20;60.80;;;;;;5089852;28;20032;-38
2021/03/12 10:17:27;;;;;;;9.95;2.65;;;9.00;61.30;;;;;;5089831;28;20074;-37
2021/03/12 10:20:05;;;;;;;6.97;2.53;;;9.10;60.30;;;;;;5089705;28;20024;-44
2021/03/12 10:22:34;;;;;;;13.70;3.83;;;9.00;59.20;;;;;;5089218;28;20024;-37
2021/03/12 10:25:11;;;;;;;11.90;3.50;;;8.90;58.20;;;;;;5089111;28;20514;-37
2021/03/12 10:28:08;;;;;;;10.95;2.60;;;9.00;58.40;;;;;;5089036;28;20093;-37
2021/03/12 10:30:40;;;;;;;15.77;3.67;;;9.10;58.10;;;;;;5080291;28;20025;-37
2021/03/12 10:33:08;;;;;;;7.63;2.20;;;9.00;58.50;;;;;;5088991;28;20058;-37
2021/03/12 10:35:35;;;;;;;22.75;2.53;;;8.80;59.10;;;;;;5089285;28;20021;-37
2021/03/12 10:38:10;;;;;;;18.85;5.50;;;8.90;58.50;;;;;;5088873;28;20032;-37
2021/03/12 10:40:40;;;;;;;19.08;5.07;;;9.20;57.40;;;;;;5076213;28;20055;-36
2021/03/12 10:43:19;;;;;;;13.60;3.13;;;8.90;57.40;;;;;;5075017;28;20491;-36
2021/03/12 10:45:54;;;;;;;17.90;3.80;;;9.10;57.00;;;;;;5075089;28;20028;-36
2021/03/12 10:48:27;;;;;;;13.27;3.63;;;9.30;56.50;;;;;;5074921;28;20024;-36
2021/03/12 10:51:00;;;;;;;16.52;3.03;;;9.60;56.40;;;;;;5075191;28;20016;-36
2021/03/12 10:53:26;;;;;;;6.93;2.00;;;9.10;57.10;;;;;;5075315;28;20025;-36
2021/03/12 10:56:02;;;;;;;10.35;3.33;;;9.00;57.50;;;;;;5075299;28;20029;-36
2021/03/12 10:58:33;;;;;;;11.95;2.47;;;9.00;58.00;;;;;;5075432;28;20085;-37
2021/03/12 11:01:18;;;;;;;10.07;2.47;;;8.90;58.00;;;;;;5074939;28;20098;-37
2021/03/12 11:03:45;;;;;;;9.88;3.13;;;8.70;59.70;;;;;;5075194;28;20039;-37
2021/03/12 11:06:12;;;;;;;9.50;3.08;;;8.70;60.40;;;;;;5074968;28;20092;-36
2021/03/12 11:08:38;;;;;;;14.52;3.28;;;8.90;62.40;;;;;;5075115;28;20029;-37
2021/03/12 11:11:07;;;;;;;12.82;3.47;;;9.50;59.60;;;;;;5074928;28;20071;-36
2021/03/12 11:13:34;;;;;;;16.67;5.80;;;9.70;58.30;;;;;;5075158;28;20150;-37
2021/03/12 11:16:00;;;;;;;15.55;3.40;;;9.60;58.00;;;;;;5074937;28;20020;-36
2021/03/12 11:18:29;;;;;;;15.00;4.13;;;9.60;57.40;;;;;;5074648;28;20316;-37
2021/03/12 11:20:55;;;;;;;13.93;3.70;;;9.10;58.60;;;;;;5074678;28;20028;-37
2021/03/12 11:23:27;;;;;;;17.90;3.08;;;8.80;60.30;;;;;;5073613;28;20024;-37
2021/03/12 11:25:53;;;;;;;14.45;5.35;;;8.80;61.90;;;;;;5074683;28;20033;-36
2021/03/12 11:28:19;;;;;;;15.88;4.45;;;8.50;62.10;;;;;;5074472;28;20045;-37
2021/03/12 11:30:45;;;;;;;11.07;3.85;;;8.40;63.10;;;;;;5074634;28;20341;-37
2021/03/12 11:33:11;;;;;;;11.68;2.75;;;7.90;64.90;;;;;;5074129;28;20043;-36
2021/03/12 11:35:38;;;;;;;11.77;2.60;;;7.80;67.40;;;;;;5074591;28;20457;-36
2021/03/12 11:38:04;;;;;;;10.00;2.25;;;8.10;67.20;;;;;;5074769;28;20068;-36
2021/03/12 11:40:30;;;;;;;12.48;3.03;;;8.30;65.70;;;;;;5074777;28;20031;-38
2021/03/12 11:42:56;;;;;;;20.40;4.15;;;8.30;62.60;;;;;;5074289;28;20036;-36
2021/03/12 11:45:22;;;;;;;12.13;2.20;;;8.50;62.90;;;;;;5074196;28;20127;-36
2021/03/12 11:47:47;;;;;;;12.48;2.45;;;8.60;61.10;;;;;;5074197;28;20020;-37
2021/03/12 11:50:16;;;;;;;10.05;2.67;;;8.70;62.20;;;;;;5074630;28;20480;-36
2021/03/12 11:52:41;;;;;;;12.75;2.75;;;8.80;60.90;;;;;;5073008;28;20460;-37
2021/03/12 11:55:08;;;;;;;15.50;2.85;;;8.80;60.30;;;;;;5074732;28;20021;-37
2021/03/12 11:57:34;;;;;;;13.85;2.83;;;8.80;61.20;;;;;;5074109;28;20075;-38
2021/03/12 12:00:02;;;;;;;15.65;3.28;;;8.90;59.40;;;;;;5074130;28;20028;-36
2021/03/12 12:02:28;;;;;;;14.52;2.72;;;9.00;60.10;;;;;;5074445;28;20425;-38
2021/03/12 12:04:54;;;;;;;11.18;2.65;;;9.00;60.00;;;;;;5074145;28;20031;-36
2021/03/12 12:07:19;;;;;;;25.95;3.53;;;9.10;58.30;;;;;;5073831;28;20029;-37
2021/03/12 12:09:45;;;;;;;9.07;2.63;;;9.00;57.70;;;;;;5074367;28;20101;-37
2021/03/12 12:12:12;;;;;;;12.73;3.38;;;9.00;58.00;;;;;;5073695;28;20020;-36
2021/03/12 12:14:39;;;;;;;18.77;3.05;;;9.00;58.10;;;;;;5073964;28;20530;-37
2021/03/12 12:17:06;;;;;;;14.57;4.28;;;9.00;57.70;;;;;;5073903;28;20048;-36
2021/03/12 12:19:32;;;;;;;8.90;2.85;;;9.20;57.00;;;;;;5073933;28;20044;-38
2021/03/12 12:21:58;;;;;;;5.53;1.83;;;9.50;55.90;;;;;;5074070;28;20025;-38
2021/03/12 12:24:24;;;;;;;13.35;2.58;;;9.60;55.80;;;;;;5073993;28;20031;-39
2021/03/12 12:26:50;;;;;;;6.05;2.35;;;9.50;54.90;;;;;;5072353;28;20469;-38
2021/03/12 12:29:16;;;;;;;10.30;2.58;;;9.40;56.00;;;;;;5073310;28;20098;-37
2021/03/12 12:31:43;;;;;;;8.27;2.72;;;9.30;56.10;;;;;;5073306;28;20021;-37
2021/03/12 12:34:08;;;;;;;13.32;2.53;;;9.40;55.40;;;;;;5073631;28;20016;-37
2021/03/12 12:36:34;;;;;;;12.00;2.63;;;9.40;55.70;;;;;;5073775;28;20545;-37
2021/03/12 12:39:04;;;;;;;15.32;3.50;;;9.40;55.20;;;;;;5073364;28;20081;-37
2021/03/12 12:41:29;;;;;;;19.13;3.35;;;9.50;55.20;;;;;;5073704;28;20353;-37
2021/03/12 12:43:55;;;;;;;11.60;2.83;;;9.40;55.20;;;;;;5073140;28;20036;-37
2021/03/12 12:46:21;;;;;;;13.90;2.50;;;9.40;55.10;;;;;;5073362;28;20107;-37
2021/03/12 12:48:47;;;;;;;13.10;2.58;;;9.40;55.70;;;;;;5072833;28;20028;-36
2021/03/12 12:51:13;;;;;;;14.32;1.88;;;9.60;54.80;;;;;;5073067;28;20477;-38
2021/03/12 12:53:38;;;;;;;9.80;3.17;;;9.50;54.60;;;;;;5073080;28;20105;-37
2021/03/12 12:56:05;;;;;;;11.88;2.05;;;9.40;55.30;;;;;;5073195;28;20093;-36
2021/03/12 12:58:31;;;;;;;14.88;2.88;;;9.30;56.40;;;;;;5072889;28;20028;-37
2021/03/12 13:00:56;;;;;;;11.82;3.17;;;9.30;56.30;;;;;;5073045;28;20440;-36
2021/03/12 13:03:24;;;;;;;14.05;2.58;;;9.10;58.30;;;;;;5072699;28;20090;-36
2021/03/12 13:05:51;;;;;;;7.60;2.17;;;9.00;59.30;;;;;;5073593;28;20029;-37
2021/03/12 13:08:17;;;;;;;22.15;2.65;;;8.90;59.70;;;;;;5073088;28;20033;-37
2021/03/12 13:10:43;;;;;;;12.55;3.47;;;8.80;59.90;;;;;;5073156;28;20021;-37
2021/03/12 13:13:09;;;;;;;15.38;3.17;;;8.90;60.10;;;;;;5073004;28;20020;-38
2021/03/12 13:15:35;;;;;;;11.27;1.83;;;9.30;59.00;;;;;;5071902;28;20131;-36
2021/03/12 13:18:01;;;;;;;14.40;2.63;;;9.50;58.80;;;;;;5072951;28;20177;-36
2021/03/12 13:20:28;;;;;;;8.43;2.50;;;9.50;57.20;;;;;;5073342;28;20379;-37
2021/03/12 13:22:53;;;;;;;12.32;2.88;;;9.70;57.10;;;;;;5073007;28;20035;-36
2021/03/12 13:25:21;;;;;;;11.13;2.53;;;9.70;57.10;;;;;;5072906;28;20404;-37
2021/03/12 13:27:47;;;;;;;17.63;1.92;;;9.50;56.90;;;;;;5072509;28;20044;-36
2021/03/12 13:30:19;;;;;;;12.80;2.38;;;9.30;58.70;;;;;;5073083;28;20031;-37
2021/03/12 13:32:45;;;;;;;10.88;1.88;;;9.00;62.30;;;;;;5073093;28;20017;-36
2021/03/12 13:35:14;;;;;;;12.93;2.30;;;8.40;68.20;;;;;;5072986;28;20025;-38
2021/03/12 13:37:41;;;;;;;15.77;2.50;;;8.40;69.90;;;;;;5072975;28;20120;-36
2021/03/12 13:40:10;;;;;;;11.30;2.85;;;8.40;69.30;;;;;;5072938;28;20035;-36
2021/03/12 13:42:36;;;;;;;10.07;2.97;;;8.50;68.40;;;;;;5071371;28;20369;-36
2021/03/12 13:45:04;;;;;;;7.00;1.83;;;8.80;66.10;;;;;;5072726;28;20418;-36
2021/03/12 13:47:29;;;;;;;9.02;1.83;;;8.90;65.70;;;;;;5072183;28;20134;-37
2021/03/12 13:49:55;;;;;;;15.38;3.38;;;9.10;64.70;;;;;;5074324;28;20052;-38
2021/03/12 13:52:21;;;;;;;6.47;2.47;;;9.20;63.70;;;;;;5072949;28;20437;-37
2021/03/12 13:54:46;;;;;;;11.07;2.53;;;9.20;61.70;;;;;;5072603;28;20024;-37
2021/03/12 13:57:12;;;;;;;5.38;1.83;;;9.20;61.80;;;;;;5072499;28;20048;-35
2021/03/12 13:59:38;;;;;;;8.02;2.20;;;9.20;60.90;;;;;;5072456;28;20060;-37
2021/03/12 14:02:04;;;;;;;19.98;3.85;;;9.20;62.00;;;;;;5072856;28;20054;-36
2021/03/12 14:04:30;;;;;;;12.98;2.58;;;9.10;62.70;;;;;;5072707;28;20031;-37
2021/03/12 14:06:56;;;;;;;13.32;2.60;;;9.30;61.60;;;;;;5073005;28;20384;-37
2021/03/12 14:09:22;;;;;;;16.25;3.88;;;9.30;61.30;;;;;;5072777;28;20021;-38
2021/03/12 14:11:47;;;;;;;21.75;5.10;;;9.50;61.20;;;;;;5072648;28;20103;-37
2021/03/12 14:14:16;;;;;;;13.00;2.38;;;9.30;61.60;;;;;;5073215;28;20025;-36
2021/03/12 14:16:42;;;;;;;11.27;2.85;;;9.50;60.80;;;;;;5076081;28;20024;-37
2021/03/12 14:19:08;;;;;;;8.48;1.85;;;9.50;60.40;;;;;;5076049;28;20050;-36
2021/03/12 14:21:34;;;;;;;8.82;2.30;;;9.40;60.80;;;;;;5074186;28;20086;-38
2021/03/12 14:23:59;;;;;;;22.55;3.50;;;9.40;61.30;;;;;;5076084;28;20032;-37
2021/03/12 14:26:25;;;;;;;21.40;4.20;;;9.30;61.30;;;;;;5075991;28;20403;-37
2021/03/12 14:28:50;;;;;;;17.85;2.47;;;9.20;61.40;;;;;;5075932;28;20496;-37
2021/03/12 14:31:16;;;;;;;11.65;2.80;;;9.10;63.10;;;;;;5075833;28;20040;-36
2021/03/12 14:33:42;;;;;;;12.25;4.68;;;9.10;63.70;;;;;;5076502;28;20133;-38
2021/03/12 14:36:08;;;;;;;6.78;1.23;;;9.00;66.10;;;;;;5076007;28;20013;-37
2021/03/12 14:38:34;;;;;;;4.85;2.13;;;8.90;65.50;;;;;;5075501;28;20036;-37
2021/03/12 14:41:00;;;;;;;9.05;3.40;;;8.80;66.60;;;;;;5075558;28;20029;-37
2021/03/12 14:43:27;;;;;;;10.88;2.47;;;8.70;66.90;;;;;;5075774;28;20056;-38
2021/03/12 14:45:53;;;;;;;9.82;2.92;;;8.60;68.40;;;;;;5075534;28;20032;-37
2021/03/12 14:48:19;;;;;;;10.80;2.38;;;8.50;69.80;;;;;;5075356;28;20039;-37
2021/03/12 14:50:45;;;;;;;4.05;1.58;;;8.30;70.80;;;;;;5075765;28;20021;-36
2021/03/12 14:53:11;;;;;;;14.88;5.53;;;8.30;72.20;;;;;;5076087;28;20025;-36
2021/03/12 14:55:36;;;;;;;5.40;1.92;;;8.20;72.30;;;;;;5075328;28;20028;-36
2021/03/12 14:58:05;;;;;;;8.38;1.58;;;8.10;71.90;;;;;;5075552;28;20029;-36
2021/03/12 15:00:31;;;;;;;19.48;5.65;;;8.10;73.40;;;;;;5075545;28;20131;-36
2021/03/12 15:02:57;;;;;;;8.82;2.53;;;8.00;74.60;;;;;;5075763;28;20024;-36
2021/03/12 15:05:22;;;;;;;4.72;1.85;;;7.80;74.40;;;;;;5075822;28;20077;-37
2021/03/12 15:07:48;;;;;;;17.70;2.92;;;7.80;75.50;;;;;;5075022;28;20357;-37
2021/03/12 15:10:15;;;;;;;16.48;4.10;;;7.80;75.40;;;;;;5075239;28;20031;-37
2021/03/12 15:12:40;;;;;;;11.00;2.45;;;7.90;75.60;;;;;;5074136;28;20109;-37
2021/03/12 15:15:07;;;;;;;9.05;1.63;;;8.00;75.10;;;;;;5073865;28;20074;-36
2021/03/12 15:17:33;;;;;;;7.97;1.73;;;7.90;75.10;;;;;;5074223;28;20024;-37
2021/03/12 15:19:59;;;;;;;6.72;2.08;;;8.00;74.30;;;;;;5074126;28;20031;-38
2021/03/12 15:22:25;;;;;;;11.30;2.25;;;8.10;73.30;;;;;;5074138;28;20024;-38
2021/03/12 15:24:51;;;;;;;7.93;2.42;;;8.10;73.50;;;;;;5074910;28;20036;-36
2021/03/12 15:27:17;;;;;;;13.10;4.85;;;7.90;73.40;;;;;;5074698;28;20027;-36
2021/03/12 15:29:43;;;;;;;7.45;1.92;;;7.80;73.90;;;;;;5074985;28;20095;-36
2021/03/12 15:32:09;;;;;;;9.23;1.65;;;7.80;74.40;;;;;;5074700;28;20032;-35
2021/03/12 15:34:34;;;;;;;4.78;1.90;;;7.80;73.70;;;;;;5073517;28;20487;-37
2021/03/12 15:37:00;;;;;;;7.38;2.40;;;7.70;73.90;;;;;;5073561;28;20020;-39
2021/03/12 15:39:27;;;;;;;2.17;1.30;;;7.80;74.20;;;;;;5075053;28;20032;-44
2021/03/12 15:41:56;;;;;;;7.47;2.05;;;7.80;73.60;;;;;;5074743;28;20028;-37
2021/03/12 15:44:22;;;;;;;6.65;1.48;;;7.80;74.10;;;;;;5074084;28;20032;-37
2021/03/12 15:46:47;;;;;;;7.38;1.95;;;7.80;73.30;;;;;;5073658;28;20028;-36
2021/03/12 15:53:22;;;;;;;10.02;2.58;;;7.80;73.00;;;;;;5074838;28;20455;-46
2021/03/12 15:55:48;;;;;;;7.22;2.25;;;7.80;72.90;;;;;;5074226;28;20100;-36
2021/03/12 15:58:16;;;;;;;14.98;2.90;;;7.80;73.10;;;;;;5093871;28;20115;-36
2021/03/12 16:00:42;;;;;;;5.95;1.48;;;7.90;73.30;;;;;;5094767;28;20383;-36
2021/03/12 16:03:08;;;;;;;8.68;1.50;;;7.80;73.00;;;;;;5094335;28;20020;-36
2021/03/12 16:05:34;;;;;;;5.45;1.90;;;7.80;73.10;;;;;;5094605;28;20382;-36
2021/03/12 16:08:01;;;;;;;12.43;1.70;;;7.80;73.50;;;;;;5094542;28;20023;-36
2021/03/12 16:10:27;;;;;;;7.50;1.67;;;7.80;73.40;;;;;;5094771;28;20157;-38
2021/03/12 16:12:53;;;;;;;7.85;1.58;;;7.80;74.30;;;;;;5094581;28;20047;-36
2021/03/12 16:15:19;;;;;;;10.48;1.95;;;7.80;75.00;;;;;;5094511;28;20425;-37
2021/03/12 16:17:44;;;;;;;1.25;1.05;;;7.60;77.90;;;;;;5094460;28;20081;-36
2021/03/12 16:20:10;;;;;;;4.75;1.42;;;5.50;79.60;;;;;;5094460;28;20502;-36
2021/03/12 16:22:37;;;;;;;7.15;1.52;;;4.70;84.90;;;;;;5094457;28;20476;-36
2021/03/12 16:25:08;;;;;;;2.33;1.13;;;4.80;85.40;;;;;;5094164;28;20032;-36
2021/03/12 16:27:36;;;;;;;4.72;1.58;;;4.80;84.80;;;;;;5093787;28;20044;-37
2021/03/12 16:30:07;;;;;;;1.70;0.65;;;4.80;84.10;;;;;;5094475;28;20099;-38
2021/03/12 16:32:33;;;;;;;4.50;1.70;;;4.70;85.00;;;;;;5094416;28;20069;-38
2021/03/12 16:34:59;;;;;;;4.97;1.48;;;4.70;85.90;;;;;;5094192;28;20016;-38
2021/03/12 16:37:25;;;;;;;5.00;1.48;;;4.60;86.40;;;;;;5093941;28;20529;-38
2021/03/12 16:39:52;;;;;;;3.35;1.45;;;4.60;86.90;;;;;;5094229;28;20480;-36
2021/03/12 16:42:17;;;;;;;4.32;1.65;;;4.60;86.70;;;;;;5094185;28;20020;-36
2021/03/12 16:44:43;;;;;;;2.60;1.20;;;4.70;86.20;;;;;;5093596;28;20027;-36
2021/03/12 16:47:09;;;;;;;2.85;1.45;;;4.80;84.40;;;;;;5093575;28;20047;-39
2021/03/12 16:49:35;;;;;;;2.78;1.20;;;4.90;84.90;;;;;;5093430;28;20035;-38
2021/03/12 16:52:01;;;;;;;4.35;1.23;;;5.10;83.80;;;;;;5093543;28;20020;-37
2021/03/12 16:54:26;;;;;;;5.60;1.00;;;5.20;82.90;;;;;;5093618;28;20103;-37
2021/03/12 16:56:52;;;;;;;1.00;0.88;;;5.30;81.90;;;;;;5093755;28;20475;-37
2021/03/12 16:59:18;;;;;;;2.20;1.42;;;5.40;81.70;;;;;;5093972;28;20489;-37
2021/03/12 17:01:43;;;;;;;1.25;0.73;;;5.50;80.80;;;;;;5093904;28;20085;-36
2021/03/12 17:04:09;;;;;;;3.88;1.50;;;5.60;81.50;;;;;;5093452;28;20429;-36
2021/03/12 17:06:35;;;;;;;2.15;1.40;;;5.70;81.10;;;;;;5093749;28;20024;-37
2021/03/12 17:09:06;;;;;;;2.95;1.73;;;5.70;81.90;;;;;;5075919;28;20103;-38
2021/03/12 17:11:39;;;;;;;9.90;1.35;;;5.70;82.60;;;;;;5093729;28;20028;-37
2021/03/12 17:14:07;;;;;;;4.57;1.50;;;5.80;82.60;;;;;;5093346;28;20024;-36
2021/03/12 17:16:33;;;;;;;3.88;1.48;;;5.80;83.20;;;;;;5093622;28;20100;-37
2021/03/12 17:18:58;;;;;;;1.98;1.05;;;5.90;83.10;;;;;;5092556;28;20348;-37
2021/03/12 17:21:24;;;;;;;5.68;2.03;;;5.90;83.80;;;;;;5093564;28;20035;-37
2021/03/12 17:23:52;;;;;;;50.60;24.77;;;5.90;83.90;;;;;;5093414;28;20102;-37
2021/03/12 17:26:19;;;;;;;5.70;2.05;;;5.90;84.70;;;;;;5093114;28;20051;-37
2021/03/12 17:28:45;;;;;;;3.58;1.55;;;5.90;84.20;;;;;;5071629;28;20041;-38
2021/03/12 17:31:11;;;;;;;3.53;1.75;;;5.90;84.40;;;;;;5071849;28;20025;-37
2021/03/12 17:33:37;;;;;;;8.77;2.10;;;5.90;85.00;;;;;;5073322;28;20021;-36
2021/03/12 17:36:03;;;;;;;5.15;2.42;;;5.90;85.40;;;;;;5073473;28;20020;-36
2021/03/12 17:38:28;;;;;;;3.72;1.77;;;5.90;85.50;;;;;;5071784;28;20025;-36
2021/03/12 17:40:54;;;;;;;3.35;1.30;;;6.00;85.60;;;;;;5073487;28;20037;-36
2021/03/12 17:43:20;;;;;;;8.15;2.63;;;6.00;84.60;;;;;;5072916;28;20538;-36
2021/03/12 17:45:45;;;;;;;3.55;2.00;;;6.10;84.70;;;;;;5071865;28;20032;-36
2021/03/12 17:48:11;;;;;;;7.18;2.47;;;6.20;84.10;;;;;;5071726;28;20468;-37
2021/03/12 17:50:39;;;;;;;3.65;1.92;;;6.20;83.80;;;;;;5075775;28;20064;-36
2021/03/12 17:53:05;;;;;;;7.40;2.45;;;6.20;84.50;;;;;;5077050;28;20024;-36
2021/03/12 17:55:31;;;;;;;3.75;2.28;;;6.30;83.90;;;;;;5076472;28;20049;-36
2021/03/12 17:57:56;;;;;;;4.20;1.67;;;6.30;83.90;;;;;;5076827;28;20035;-36
2021/03/12 18:00:24;;;;;;;3.50;2.10;;;6.30;83.40;;;;;;5076761;28;20368;-36
2021/03/12 18:02:51;;;;;;;7.68;2.10;;;6.40;83.00;;;;;;5077085;28;20070;-36
2021/03/12 18:05:17;;;;;;;6.57;1.50;;;6.50;82.80;;;;;;5076850;28;20046;-36
2021/03/12 18:07:43;;;;;;;2.83;2.03;;;6.50;82.20;;;;;;5077188;28;20452;-36
2021/03/12 18:10:10;;;;;;;23.42;2.85;;;6.60;82.00;;;;;;5076818;28;20028;-36
2021/03/12 18:12:35;;;;;;;3.00;1.88;;;6.70;81.70;;;;;;5076988;28;20020;-37
2021/03/12 18:15:01;;;;;;;5.45;2.75;;;6.60;82.00;;;;;;5075420;28;20104;-37
2021/03/12 18:17:27;;;;;;;6.63;1.75;;;6.60;81.90;;;;;;5077450;28;20419;-37
2021/03/12 18:19:52;;;;;;;1.80;1.50;;;6.70;81.50;;;;;;5076593;28;20075;-36
2021/03/12 18:22:19;;;;;;;3.95;1.92;;;6.70;81.80;;;;;;5076505;28;20074;-36
2021/03/12 18:24:45;;;;;;;3.55;1.52;;;6.70;82.00;;;;;;5076281;28;20070;-36
2021/03/12 18:27:11;;;;;;;4.65;1.70;;;6.70;81.20;;;;;;5077952;28;20095;-36
2021/03/12 18:29:37;;;;;;;12.98;2.60;;;6.80;80.80;;;;;;5096579;28;20111;-37
2021/03/12 18:32:04;;;;;;;4.03;1.55;;;6.80;80.10;;;;;;5096461;28;20035;-37
2021/03/12 18:34:30;;;;;;;4.20;1.90;;;6.80;80.60;;;;;;5096659;28;20066;-37
2021/03/12 18:36:56;;;;;;;1.60;1.30;;;6.80;80.30;;;;;;5096169;28;20052;-36
2021/03/12 18:39:21;;;;;;;6.40;2.13;;;6.80;79.90;;;;;;5096204;28;20025;-35
2021/03/12 18:41:47;;;;;;;2.35;1.50;;;6.80;80.20;;;;;;5095815;28;20035;-36
2021/03/12 18:44:16;;;;;;;3.85;1.48;;;6.80;79.60;;;;;;5077553;28;20490;-35
2021/03/12 18:47:02;;;;;;;5.10;1.13;;;6.80;79.30;;;;;;5096771;28;20391;-36
2021/03/12 18:49:33;;;;;;;3.30;1.23;;;6.80;79.50;;;;;;5096131;28;20103;-36
2021/03/12 18:51:59;;;;;;;3.08;1.75;;;6.80;79.40;;;;;;5096068;28;20012;-36
2021/03/12 18:54:25;;;;;;;9.25;2.47;;;6.80;79.40;;;;;;5077752;28;20024;-36
2021/03/12 18:56:51;;;;;;;3.42;1.40;;;6.80;79.50;;;;;;5095728;28;20091;-36
2021/03/12 18:59:16;;;;;;;2.70;1.30;;;6.90;78.80;;;;;;5096246;28;20475;-36
2021/03/12 19:01:42;;;;;;;5.50;1.95;;;6.80;79.30;;;;;;5095266;28;20035;-44
2021/03/12 19:04:08;;;;;;;2.45;1.30;;;6.80;78.30;;;;;;5077623;28;20024;-36
2021/03/12 19:06:33;;;;;;;4.72;2.33;;;6.80;78.10;;;;;;5095739;28;20035;-36
2021/03/12 19:08:59;;;;;;;2.70;1.27;;;6.80;78.50;;;;;;5095952;28;20375;-36
2021/03/12 19:11:26;;;;;;;2.72;1.50;;;6.80;77.70;;;;;;5077426;28;20025;-35
2021/03/12 19:13:52;;;;;;;2.00;1.73;;;6.80;78.20;;;;;;5095386;28;20020;-36
2021/03/12 19:16:18;;;;;;;2.85;1.40;;;6.80;78.60;;;;;;5095407;28;20020;-36
2021/03/12 19:18:43;;;;;;;6.60;2.10;;;6.80;78.70;;;;;;5095512;28;20138;-37
2021/03/12 19:21:09;;;;;;;6.18;2.47;;;6.70;80.50;;;;;;5095482;28;20070;-37
2021/03/12 19:23:34;;;;;;;6.93;2.70;;;6.50;82.00;;;;;;5095426;28;20561;-36
2021/03/12 19:26:00;;;;;;;5.28;2.40;;;6.50;82.60;;;;;;5095214;28;20109;-35
2021/03/12 19:28:26;;;;;;;6.85;2.80;;;6.50;82.90;;;;;;5095005;28;20047;-35
2021/03/12 19:30:51;;;;;;;7.40;3.08;;;6.50;82.10;;;;;;5095499;28;20082;-35
2021/03/12 19:33:17;;;;;;;6.15;2.28;;;6.50;82.20;;;;;;5095304;28;20026;-35
2021/03/12 19:35:43;;;;;;;7.90;2.88;;;6.40;82.50;;;;;;5095416;28;20043;-35
2021/03/12 19:38:09;;;;;;;5.60;2.47;;;6.40;81.90;;;;;;5095484;28;20028;-37
2021/03/12 19:40:35;;;;;;;4.80;2.25;;;6.40;81.40;;;;;;5095315;28;20492;-36
2021/03/12 19:43:00;;;;;;;7.57;2.38;;;6.40;81.70;;;;;;5094767;28;20027;-36
2021/03/12 19:45:26;;;;;;;6.15;2.15;;;6.40;81.60;;;;;;5094863;28;20020;-36
2021/03/12 19:47:52;;;;;;;3.70;1.77;;;6.50;81.10;;;;;;5077279;28;20055;-35
2021/03/12 19:50:20;;;;;;;4.75;2.58;;;6.50;80.80;;;;;;5094625;28;20392;-36
2021/03/12 19:52:46;;;;;;;3.15;2.50;;;6.60;80.70;;;;;;5095029;28;20024;-36
2021/03/12 19:55:12;;;;;;;5.60;2.55;;;6.60;80.50;;;;;;5095034;28;20020;-36
2021/03/12 19:57:38;;;;;;;12.52;2.80;;;6.60;80.20;;;;;;5095014;28;20544;-36
2021/03/12 20:00:15;;;;;;;5.45;2.53;;;6.60;80.50;;;;;;5094696;28;20085;-36
2021/03/12 20:02:42;;;;;;;8.60;1.77;;;6.60;80.20;;;;;;5095249;28;20028;-36
2021/03/12 20:05:10;;;;;;;12.23;4.15;;;6.70;80.20;;;;;;5095065;28;20046;-36
2021/03/12 20:07:37;;;;;;;7.18;2.15;;;6.60;80.00;;;;;;5094293;28;20036;-36
2021/03/12 20:10:05;;;;;;;8.60;2.63;;;6.80;79.40;;;;;;5094752;28;20393;-36
2021/03/12 20:12:31;;;;;;;4.95;2.60;;;6.80;79.50;;;;;;5093291;28;20024;-36
2021/03/12 20:14:58;;;;;;;11.40;3.42;;;6.70;79.50;;;;;;5094210;28;20529;-36
2021/03/12 20:17:23;;;;;;;5.68;2.75;;;6.80;79.40;;;;;;5094214;28;20028;-36
2021/03/12 20:19:49;;;;;;;6.88;2.50;;;6.80;79.50;;;;;;5094501;28;20035;-36
2021/03/12 20:22:15;;;;;;;7.38;2.92;;;6.80;79.50;;;;;;5094551;28;20024;-36
2021/03/12 20:24:40;;;;;;;8.55;4.18;;;6.80;79.90;;;;;;5094251;28;20051;-37
2021/03/12 20:27:06;;;;;;;7.70;3.03;;;6.80;79.50;;;;;;5094181;28;20428;-37
2021/03/12 20:29:32;;;;;;;12.38;3.72;;;6.80;79.60;;;;;;5094059;28;20030;-36
2021/03/12 20:31:57;;;;;;;11.50;3.53;;;6.80;79.60;;;;;;5094082;28;20016;-36
2021/03/12 20:34:24;;;;;;;7.03;2.45;;;6.80;80.00;;;;;;5094128;28;20023;-36
2021/03/12 20:36:51;;;;;;;9.40;3.85;;;6.80;79.90;;;;;;5075924;28;20047;-36
2021/03/12 20:39:18;;;;;;;10.68;2.80;;;6.80;79.90;;;;;;5093983;28;20024;-36
2021/03/12 20:41:45;;;;;;;10.23;3.55;;;6.80;80.10;;;;;;5093919;28;20061;-37
2021/03/12 20:44:12;;;;;;;12.57;3.20;;;6.80;80.30;;;;;;5093908;28;20031;-37
2021/03/12 20:46:40;;;;;;;7.93;3.10;;;6.80;80.20;;;;;;5094150;28;20023;-37
2021/03/12 20:49:06;;;;;;;12.50;4.07;;;6.90;80.10;;;;;;5075923;28;20027;-36
2021/03/12 20:51:32;;;;;;;6.28;3.00;;;6.80;80.00;;;;;;5093923;28;20487;-36
2021/03/12 20:53:58;;;;;;;7.72;3.15;;;6.80;80.00;;;;;;5093766;28;20055;-36
2021/03/12 20:56:24;;;;;;;7.22;2.80;;;6.80;80.00;;;;;;5075435;28;20060;-37
2021/03/12 20:58:49;;;;;;;13.25;3.13;;;6.90;79.30;;;;;;5093633;28;20098;-37
2021/03/12 21:01:15;;;;;;;7.57;3.30;;;6.80;79.40;;;;;;5093565;28;20028;-37
2021/03/12 21:03:41;;;;;;;7.07;3.33;;;6.80;79.50;;;;;;5093829;28;20107;-35
2021/03/12 21:06:06;;;;;;;15.68;3.78;;;6.80;79.20;;;;;;5093731;28;20055;-36
2021/03/12 21:08:32;;;;;;;8.57;2.95;;;6.80;79.50;;;;;;5075276;28;20060;-35
2021/03/12 21:10:57;;;;;;;14.05;4.07;;;6.80;79.00;;;;;;5093563;28;20020;-35
2021/03/12 21:13:23;;;;;;;8.55;3.03;;;6.80;79.30;;;;;;5093243;28;20016;-36
2021/03/12 21:15:49;;;;;;;7.03;3.13;;;6.70;79.50;;;;;;5093939;28;20111;-35
2021/03/12 21:18:15;;;;;;;6.47;2.20;;;6.70;79.60;;;;;;5093520;28;20027;-36
2021/03/12 21:20:41;;;;;;;9.38;2.50;;;6.70;79.10;;;;;;5093339;28;20032;-36
2021/03/12 21:23:08;;;;;;;10.10;2.78;;;6.70;79.30;;;;;;5093227;28;20062;-35
2021/03/12 21:25:38;;;;;;;7.03;2.50;;;6.70;79.30;;;;;;5093926;28;20035;-36
2021/03/12 21:28:04;;;;;;;3.92;2.97;;;6.80;78.80;;;;;;5092952;28;20088;-36
2021/03/12 21:30:30;;;;;;;11.00;5.20;;;6.80;78.80;;;;;;5093137;28;20028;-35
2021/03/12 21:32:57;;;;;;;7.63;3.17;;;6.80;78.90;;;;;;5093405;28;20421;-36
2021/03/12 21:35:23;;;;;;;8.23;2.60;;;6.70;79.00;;;;;;5093318;28;20405;-37
2021/03/12 21:37:49;;;;;;;3.83;1.70;;;6.80;79.20;;;;;;5093057;28;20032;-37
2021/03/12 21:40:15;;;;;;;7.40;2.38;;;6.70;79.20;;;;;;5092993;28;20490;-35
2021/03/12 21:42:41;;;;;;;5.90;2.33;;;6.80;78.90;;;;;;5093352;28;20399;-35
2021/03/12 21:45:09;;;;;;;6.18;2.28;;;6.70;79.00;;;;;;5093081;28;20032;-35
2021/03/12 21:47:35;;;;;;;5.28;2.63;;;6.70;78.80;;;;;;5093496;28;20032;-36
2021/03/12 21:50:01;;;;;;;8.00;2.63;;;6.70;78.70;;;;;;5093634;28;20453;-36
2021/03/12 21:52:26;;;;;;;7.88;2.28;;;6.70;79.10;;;;;;5074790;28;20024;-35
2021/03/12 21:54:52;;;;;;;9.18;3.58;;;6.50;79.70;;;;;;5093232;28;20016;-37
2021/03/12 21:57:18;;;;;;;3.58;2.30;;;6.60;79.30;;;;;;5093015;28;20023;-36
2021/03/12 21:59:44;;;;;;;9.80;2.70;;;6.50;79.40;;;;;;5093249;28;20047;-36
2021/03/12 22:02:10;;;;;;;4.18;2.22;;;6.60;79.10;;;;;;5093047;28;20024;-36
2021/03/12 22:04:38;;;;;;;7.95;2.92;;;6.70;79.20;;;;;;5092922;28;20160;-36
2021/03/12 22:07:04;;;;;;;9.25;2.65;;;6.70;78.90;;;;;;5092969;28;20020;-36
2021/03/12 22:09:30;;;;;;;6.40;2.40;;;6.70;78.90;;;;;;5092937;28;20432;-36
2021/03/12 22:11:56;;;;;;;7.00;2.50;;;6.80;78.40;;;;;;5093032;28;20031;-37
2021/03/12 22:14:22;;;;;;;6.13;3.08;;;6.80;78.70;;;;;;5093207;28;20095;-37
2021/03/12 22:16:48;;;;;;;9.20;3.75;;;6.70;79.20;;;;;;5092916;28;20020;-38
2021/03/12 22:19:14;;;;;;;8.73;2.78;;;6.70;78.70;;;;;;5092887;28;20024;-38
2021/03/12 22:21:40;;;;;;;6.90;3.15;;;6.80;78.70;;;;;;5093202;28;20054;-37
2021/03/12 22:24:07;;;;;;;6.13;2.53;;;6.80;78.40;;;;;;5093114;28;20036;-38